Gordon, NE (69343)

6:12 AM MST on December 03, 2016 (GMT -0700)
Pine Ridge | | Change Station

Elev 3330 ft 43.02 °N, 102.52 °W | Updated 20 minutes ago

Clear
Clear
28 °F
Feels Like 16 °F
N
15
Wind Variable Wind from South

Today
High -- | Low -- °F
--% Chance of Precip.
Yesterday
High -- | Low -- °F
Precip. -- in
Pressure 30.08 in
Visibility 10.0 miles
Clouds Clear
Windchill 16 °F
Dew Point 23 °F
Humidity 81%
Rainfall 0.00 in
Snow Depth Not available.
7:02 AM 4:15 PM
Waxing Crescent, 15% visible
METAR KIEN 031252Z AUTO 19013KT 10SM CLR M02/M05 A2997 RMK AO2 SLP184 T10221050
Pressure 30.08 in
Visibility 10.0 miles
Clouds Clear
Windchill 16 °F
Dew Point 23 °F
Humidity 81%
Rainfall 0.00 in
Snow Depth Not available.
7:02 AM 4:15 PM
Waxing Crescent, 15% visible
METAR KIEN 031252Z AUTO 19013KT 10SM CLR M02/M05 A2997 RMK AO2 SLP184 T10221050

10-Day Weather Forecast

Almanac

Astronomy

Dec. 03, 2016 Rise Set
Actual Time
Civil Twilight
Nautical Twilight
Astronomical Twilight
Moon
Length of Visible Light
Length of Day
Tomorrow will be .
, % of the Moon is Illuminated

Today's Extremes

State Highs State Lows

Community

WunderPhotos

Upload Photos

1,955,443 photos uploaded!

WunderBlog® & News

Nearby

Air Quality

  Air Quality AQ Index Pollutant
Not available.

Snow Depth

Station Depth Elevation

Earthquake Activity

City Distance Mag. Time & Date
Minimum magnitude displayed is 2.5.

Coastal Water Temperatures

Place Temperature

Stations

Nearby Weather Stations

Station Location Temp. Windchill Dew Point Humidity Wind Precip. Elev Updated Type
                   

Watches & Warnings

There are currently no watches in effect.